Decoded Metar for PAKT (KETCHIKAN in AK, USA) (IATA:KTN) | Meteo·Mobile Aviation Weather
aviador You're here:

PAKT Decoded Metar

KETCHIKAN in AK, USA
Report Time2018-09-21 11:53:00
UTC Time2018-09-21 12:04:16
Flight Rules vfr VFR
Wind320° at 08 kt
W.Decomp.*RWY 29: 7.9 kt HW 1.3 kt RCW
W.Rank320° ranks 7
Current wind is above 320° avg. (7.6)
Visibility9999 m
Phenomena:N/A
Clouds:N/A
Expected CloudBase > 800 ft AGL from Temp-Dew spread
CeilingNone
Temp09°C (ISA -6)
Dew Point07°C (87% RH)
AAT5.4°C
QNH1015 hPa
Density Alt-538 ft
Elevation92 ft
Report Wrong Elevation
Raw Report
PAKT 211153Z AUTO 32008KT 10SM CLR 09/07 A2998 RMK AO2 SLP153
T00890067 10094 20067 56008 TSNO=

Extra information for PAKT:More info

Metar Taf Metar & Taf Last 4 Metars F.Rules Stats Wind Profile Meteogram Temp Stats Airport Information Weather charts Add Link Nearby VenuesMetar ALERT Operation Metar Decoded Social comments

AIRNAV info for PAKT